Terminal Aerodrome Forecast
Issued by NWS Wilmington, OH

Current Version | Previous Version | Text Only | Print | Product List | Glossary Off
Versions: 1 2 3 4 5 6 7 8 9 10 11 12 13

000
FTUS41 KILN 192325
TAFCMH
TAF
KCMH 192325Z 2000/2024 31014KT P6SM SKC
     FM200200 32010KT P6SM SKC
     FM200700 35004KT P6SM SKC
     FM201500 35009KT P6SM SKC=

USA.gov is the U.S. government's official web portal to all federal, state and local government web resources and services.